sensor_id;sensor_type;location;lat;lon;timestamp;P1;durP1;ratioP1;P2;durP2;ratioP2
20298;SDS011;10308;42.688;23.256;2024-01-07T00:00:01;14.30;;;12.90;;
20298;SDS011;10308;42.688;23.256;2024-01-07T00:02:32;14.52;;;13.10;;
20298;SDS011;10308;42.688;23.256;2024-01-07T00:04:59;13.85;;;12.55;;
20298;SDS011;10308;42.688;23.256;2024-01-07T00:07:27;13.80;;;12.38;;
20298;SDS011;10308;42.688;23.256;2024-01-07T00:09:55;15.13;;;13.63;;
20298;SDS011;10308;42.688;23.256;2024-01-07T00:12:22;15.43;;;13.80;;
20298;SDS011;10308;42.688;23.256;2024-01-07T00:14:54;14.63;;;13.30;;
20298;SDS011;10308;42.688;23.256;2024-01-07T00:17:21;13.73;;;12.32;;
20298;SDS011;10308;42.688;23.256;2024-01-07T00:19:48;14.45;;;13.15;;
20298;SDS011;10308;42.688;23.256;2024-01-07T00:22:15;15.35;;;13.88;;
20298;SDS011;10308;42.688;23.256;2024-01-07T00:24:45;14.77;;;13.48;;
20298;SDS011;10308;42.688;23.256;2024-01-07T00:27:14;14.15;;;12.77;;
20298;SDS011;10308;42.688;23.256;2024-01-07T00:29:41;14.20;;;12.90;;
20298;SDS011;10308;42.688;23.256;2024-01-07T00:32:11;13.75;;;12.55;;
20298;SDS011;10308;42.688;23.256;2024-01-07T00:34:41;13.50;;;12.20;;
20298;SDS011;10308;42.688;23.256;2024-01-07T00:37:09;13.35;;;12.05;;
20298;SDS011;10308;42.688;23.256;2024-01-07T00:39:36;13.38;;;12.18;;
20298;SDS011;10308;42.688;23.256;2024-01-07T00:42:08;13.52;;;12.23;;
20298;SDS011;10308;42.688;23.256;2024-01-07T00:44:39;14.10;;;12.77;;
20298;SDS011;10308;42.688;23.256;2024-01-07T00:47:11;12.68;;;11.57;;
20298;SDS011;10308;42.688;23.256;2024-01-07T00:49:38;13.32;;;12.02;;
20298;SDS011;10308;42.688;23.256;2024-01-07T00:52:06;13.02;;;11.88;;
20298;SDS011;10308;42.688;23.256;2024-01-07T00:54:36;13.65;;;12.20;;
20298;SDS011;10308;42.688;23.256;2024-01-07T00:57:04;12.90;;;11.70;;
20298;SDS011;10308;42.688;23.256;2024-01-07T00:59:31;12.88;;;11.57;;
20298;SDS011;10308;42.688;23.256;2024-01-07T01:01:58;12.70;;;11.45;;
20298;SDS011;10308;42.688;23.256;2024-01-07T01:04:30;12.57;;;11.48;;
20298;SDS011;10308;42.688;23.256;2024-01-07T01:07:01;12.40;;;11.10;;
20298;SDS011;10308;42.688;23.256;2024-01-07T01:09:28;11.85;;;10.85;;
20298;SDS011;10308;42.688;23.256;2024-01-07T01:11:58;12.70;;;11.40;;
20298;SDS011;10308;42.688;23.256;2024-01-07T01:14:26;13.00;;;11.70;;
20298;SDS011;10308;42.688;23.256;2024-01-07T01:16:54;13.23;;;11.93;;
20298;SDS011;10308;42.688;23.256;2024-01-07T01:19:22;13.57;;;12.43;;
20298;SDS011;10308;42.688;23.256;2024-01-07T01:21:52;13.38;;;11.98;;
20298;SDS011;10308;42.688;23.256;2024-01-07T01:24:19;12.88;;;11.77;;
20298;SDS011;10308;42.688;23.256;2024-01-07T01:26:48;12.75;;;11.65;;
20298;SDS011;10308;42.688;23.256;2024-01-07T01:29:16;13.10;;;11.80;;
20298;SDS011;10308;42.688;23.256;2024-01-07T01:31:45;13.00;;;11.88;;
20298;SDS011;10308;42.688;23.256;2024-01-07T01:34:12;12.90;;;11.63;;
20298;SDS011;10308;42.688;23.256;2024-01-07T01:36:41;13.35;;;12.15;;
20298;SDS011;10308;42.688;23.256;2024-01-07T01:39:10;12.68;;;11.43;;
20298;SDS011;10308;42.688;23.256;2024-01-07T01:41:39;13.52;;;12.25;;
20298;SDS011;10308;42.688;23.256;2024-01-07T01:44:06;12.57;;;11.40;;
20298;SDS011;10308;42.688;23.256;2024-01-07T01:46:34;12.25;;;11.15;;
20298;SDS011;10308;42.688;23.256;2024-01-07T01:49:01;13.52;;;12.18;;
20298;SDS011;10308;42.688;23.256;2024-01-07T01:51:28;13.35;;;12.05;;
20298;SDS011;10308;42.688;23.256;2024-01-07T01:53:55;12.65;;;11.55;;
20298;SDS011;10308;42.688;23.256;2024-01-07T01:56:25;12.93;;;11.77;;
20298;SDS011;10308;42.688;23.256;2024-01-07T01:58:54;12.43;;;11.23;;
20298;SDS011;10308;42.688;23.256;2024-01-07T02:01:22;13.10;;;11.88;;
20298;SDS011;10308;42.688;23.256;2024-01-07T02:03:49;13.18;;;11.98;;
20298;SDS011;10308;42.688;23.256;2024-01-07T02:06:17;12.88;;;11.77;;
20298;SDS011;10308;42.688;23.256;2024-01-07T02:08:45;13.52;;;12.23;;
20298;SDS011;10308;42.688;23.256;2024-01-07T02:11:16;13.45;;;12.15;;
20298;SDS011;10308;42.688;23.256;2024-01-07T02:13:45;12.50;;;11.40;;
20298;SDS011;10308;42.688;23.256;2024-01-07T02:16:12;12.55;;;11.23;;
20298;SDS011;10308;42.688;23.256;2024-01-07T02:18:40;12.68;;;11.38;;
20298;SDS011;10308;42.688;23.256;2024-01-07T02:21:09;12.50;;;11.38;;
20298;SDS011;10308;42.688;23.256;2024-01-07T02:23:36;12.48;;;11.35;;
20298;SDS011;10308;42.688;23.256;2024-01-07T02:26:05;12.45;;;11.32;;
20298;SDS011;10308;42.688;23.256;2024-01-07T02:28:32;11.45;;;10.43;;
20298;SDS011;10308;42.688;23.256;2024-01-07T02:30:59;11.68;;;10.48;;
20298;SDS011;10308;42.688;23.256;2024-01-07T02:33:26;11.85;;;10.75;;
20298;SDS011;10308;42.688;23.256;2024-01-07T02:35:53;11.43;;;10.43;;
20298;SDS011;10308;42.688;23.256;2024-01-07T02:38:20;12.48;;;11.38;;
20298;SDS011;10308;42.688;23.256;2024-01-07T02:40:47;11.80;;;10.60;;
20298;SDS011;10308;42.688;23.256;2024-01-07T02:43:15;11.93;;;10.77;;
20298;SDS011;10308;42.688;23.256;2024-01-07T02:45:42;11.55;;;10.45;;
20298;SDS011;10308;42.688;23.256;2024-01-07T02:48:09;11.23;;;10.23;;
20298;SDS011;10308;42.688;23.256;2024-01-07T02:50:36;10.93;;;9.93;;
20298;SDS011;10308;42.688;23.256;2024-01-07T02:53:03;10.90;;;9.95;;
20298;SDS011;10308;42.688;23.256;2024-01-07T02:55:30;11.38;;;10.20;;
20298;SDS011;10308;42.688;23.256;2024-01-07T02:57:57;10.38;;;9.25;;
20298;SDS011;10308;42.688;23.256;2024-01-07T03:00:25;10.23;;;9.32;;
20298;SDS011;10308;42.688;23.256;2024-01-07T03:02:52;10.80;;;9.75;;
20298;SDS011;10308;42.688;23.256;2024-01-07T03:05:19;11.75;;;10.68;;
20298;SDS011;10308;42.688;23.256;2024-01-07T03:07:46;10.75;;;9.75;;
20298;SDS011;10308;42.688;23.256;2024-01-07T03:10:13;10.65;;;9.68;;
20298;SDS011;10308;42.688;23.256;2024-01-07T03:12:40;10.70;;;9.70;;
20298;SDS011;10308;42.688;23.256;2024-01-07T03:15:08;10.88;;;9.77;;
20298;SDS011;10308;42.688;23.256;2024-01-07T03:17:36;10.30;;;9.25;;
20298;SDS011;10308;42.688;23.256;2024-01-07T03:20:03;9.98;;;9.07;;
20298;SDS011;10308;42.688;23.256;2024-01-07T03:22:31;8.30;;;7.55;;
20298;SDS011;10308;42.688;23.256;2024-01-07T03:24:58;9.70;;;8.35;;
20298;SDS011;10308;42.688;23.256;2024-01-07T03:27:25;8.25;;;7.45;;
20298;SDS011;10308;42.688;23.256;2024-01-07T03:29:52;8.35;;;7.57;;
20298;SDS011;10308;42.688;23.256;2024-01-07T03:32:19;7.32;;;6.68;;
20298;SDS011;10308;42.688;23.256;2024-01-07T03:34:48;7.32;;;6.63;;
20298;SDS011;10308;42.688;23.256;2024-01-07T03:37:15;7.30;;;6.60;;
20298;SDS011;10308;42.688;23.256;2024-01-07T03:39:42;5.10;;;4.60;;
20298;SDS011;10308;42.688;23.256;2024-01-07T03:42:10;5.13;;;4.40;;
20298;SDS011;10308;42.688;23.256;2024-01-07T03:44:37;3.78;;;3.35;;
20298;SDS011;10308;42.688;23.256;2024-01-07T03:47:04;4.72;;;3.58;;
20298;SDS011;10308;42.688;23.256;2024-01-07T03:49:32;4.35;;;3.45;;
20298;SDS011;10308;42.688;23.256;2024-01-07T03:52:00;3.10;;;2.80;;
20298;SDS011;10308;42.688;23.256;2024-01-07T03:54:27;3.88;;;3.20;;
20298;SDS011;10308;42.688;23.256;2024-01-07T03:56:54;3.35;;;3.05;;
20298;SDS011;10308;42.688;23.256;2024-01-07T03:59:21;2.92;;;2.72;;
20298;SDS011;10308;42.688;23.256;2024-01-07T04:01:50;3.20;;;2.50;;
20298;SDS011;10308;42.688;23.256;2024-01-07T04:04:17;3.15;;;2.83;;
20298;SDS011;10308;42.688;23.256;2024-01-07T04:06:44;2.50;;;2.30;;
20298;SDS011;10308;42.688;23.256;2024-01-07T04:09:12;2.50;;;2.40;;
20298;SDS011;10308;42.688;23.256;2024-01-07T04:11:39;2.30;;;2.10;;
20298;SDS011;10308;42.688;23.256;2024-01-07T04:14:07;1.77;;;1.67;;
20298;SDS011;10308;42.688;23.256;2024-01-07T04:16:34;1.98;;;1.77;;
20298;SDS011;10308;42.688;23.256;2024-01-07T04:19:01;2.22;;;2.13;;
20298;SDS011;10308;42.688;23.256;2024-01-07T04:21:28;1.98;;;1.88;;
20298;SDS011;10308;42.688;23.256;2024-01-07T04:23:55;1.80;;;1.70;;
20298;SDS011;10308;42.688;23.256;2024-01-07T04:26:23;1.90;;;1.80;;
20298;SDS011;10308;42.688;23.256;2024-01-07T04:28:50;1.70;;;1.60;;
20298;SDS011;10308;42.688;23.256;2024-01-07T04:31:17;1.90;;;1.80;;
20298;SDS011;10308;42.688;23.256;2024-01-07T04:33:44;3.22;;;2.92;;
20298;SDS011;10308;42.688;23.256;2024-01-07T04:36:12;2.30;;;2.10;;
20298;SDS011;10308;42.688;23.256;2024-01-07T04:38:39;2.42;;;2.22;;
20298;SDS011;10308;42.688;23.256;2024-01-07T04:41:06;2.47;;;2.25;;
20298;SDS011;10308;42.688;23.256;2024-01-07T04:43:35;2.30;;;2.20;;
20298;SDS011;10308;42.688;23.256;2024-01-07T04:46:02;3.47;;;3.17;;
20298;SDS011;10308;42.688;23.256;2024-01-07T04:48:29;3.08;;;2.88;;
20298;SDS011;10308;42.688;23.256;2024-01-07T04:50:56;2.85;;;2.65;;
20298;SDS011;10308;42.688;23.256;2024-01-07T04:53:23;3.13;;;2.80;;
20298;SDS011;10308;42.688;23.256;2024-01-07T04:55:50;2.78;;;2.50;;
20298;SDS011;10308;42.688;23.256;2024-01-07T04:58:17;3.10;;;2.90;;
20298;SDS011;10308;42.688;23.256;2024-01-07T05:00:45;3.20;;;3.00;;
20298;SDS011;10308;42.688;23.256;2024-01-07T05:03:12;3.38;;;3.08;;
20298;SDS011;10308;42.688;23.256;2024-01-07T05:05:39;3.88;;;3.58;;
20298;SDS011;10308;42.688;23.256;2024-01-07T05:08:07;12.95;;;11.85;;
20298;SDS011;10308;42.688;23.256;2024-01-07T05:10:34;14.07;;;13.07;;
20298;SDS011;10308;42.688;23.256;2024-01-07T05:13:01;14.68;;;13.48;;
20298;SDS011;10308;42.688;23.256;2024-01-07T05:15:31;10.07;;;9.27;;
20298;SDS011;10308;42.688;23.256;2024-01-07T05:17:59;6.53;;;5.93;;
20298;SDS011;10308;42.688;23.256;2024-01-07T05:20:26;4.38;;;4.07;;
20298;SDS011;10308;42.688;23.256;2024-01-07T05:22:54;4.85;;;4.20;;
20298;SDS011;10308;42.688;23.256;2024-01-07T05:25:21;4.47;;;4.07;;
20298;SDS011;10308;42.688;23.256;2024-01-07T05:27:48;4.88;;;4.35;;
20298;SDS011;10308;42.688;23.256;2024-01-07T05:30:15;5.50;;;5.00;;
20298;SDS011;10308;42.688;23.256;2024-01-07T05:32:42;5.50;;;4.75;;
20298;SDS011;10308;42.688;23.256;2024-01-07T05:35:10;6.18;;;5.28;;
20298;SDS011;10308;42.688;23.256;2024-01-07T05:37:37;5.78;;;5.10;;
20298;SDS011;10308;42.688;23.256;2024-01-07T05:40:04;6.10;;;5.45;;
20298;SDS011;10308;42.688;23.256;2024-01-07T05:42:32;8.75;;;6.30;;
20298;SDS011;10308;42.688;23.256;2024-01-07T05:44:59;8.48;;;6.10;;
20298;SDS011;10308;42.688;23.256;2024-01-07T05:47:27;8.52;;;6.47;;
20298;SDS011;10308;42.688;23.256;2024-01-07T05:49:55;8.73;;;6.35;;
20298;SDS011;10308;42.688;23.256;2024-01-07T05:52:23;6.88;;;5.93;;
20298;SDS011;10308;42.688;23.256;2024-01-07T05:54:50;6.40;;;5.80;;
20298;SDS011;10308;42.688;23.256;2024-01-07T05:57:17;6.20;;;5.55;;
20298;SDS011;10308;42.688;23.256;2024-01-07T05:59:44;5.53;;;5.03;;
20298;SDS011;10308;42.688;23.256;2024-01-07T06:02:11;5.95;;;5.32;;
20298;SDS011;10308;42.688;23.256;2024-01-07T06:04:41;7.95;;;7.13;;
20298;SDS011;10308;42.688;23.256;2024-01-07T06:07:08;9.40;;;8.50;;
20298;SDS011;10308;42.688;23.256;2024-01-07T06:09:37;8.75;;;7.95;;
20298;SDS011;10308;42.688;23.256;2024-01-07T06:12:07;10.52;;;8.70;;
20298;SDS011;10308;42.688;23.256;2024-01-07T06:14:34;9.15;;;8.30;;
20298;SDS011;10308;42.688;23.256;2024-01-07T06:17:01;8.25;;;7.50;;
20298;SDS011;10308;42.688;23.256;2024-01-07T06:19:29;8.13;;;7.38;;
20298;SDS011;10308;42.688;23.256;2024-01-07T06:21:56;8.57;;;7.78;;
20298;SDS011;10308;42.688;23.256;2024-01-07T06:24:23;8.25;;;7.55;;
20298;SDS011;10308;42.688;23.256;2024-01-07T06:26:51;7.82;;;7.03;;
20298;SDS011;10308;42.688;23.256;2024-01-07T06:29:18;7.75;;;6.93;;
20298;SDS011;10308;42.688;23.256;2024-01-07T06:31:45;7.45;;;6.75;;
20298;SDS011;10308;42.688;23.256;2024-01-07T06:34:13;7.28;;;6.65;;
20298;SDS011;10308;42.688;23.256;2024-01-07T06:36:40;8.07;;;7.18;;
20298;SDS011;10308;42.688;23.256;2024-01-07T06:39:07;7.38;;;6.68;;
20298;SDS011;10308;42.688;23.256;2024-01-07T06:41:34;6.75;;;6.15;;
20298;SDS011;10308;42.688;23.256;2024-01-07T06:44:03;8.18;;;7.40;;
20298;SDS011;10308;42.688;23.256;2024-01-07T06:46:30;7.65;;;6.95;;
20298;SDS011;10308;42.688;23.256;2024-01-07T06:48:59;7.28;;;6.68;;
20298;SDS011;10308;42.688;23.256;2024-01-07T06:51:26;7.78;;;7.00;;
20298;SDS011;10308;42.688;23.256;2024-01-07T06:53:53;7.10;;;6.50;;
20298;SDS011;10308;42.688;23.256;2024-01-07T06:56:20;8.32;;;7.63;;
20298;SDS011;10308;42.688;23.256;2024-01-07T06:58:47;8.32;;;7.53;;
20298;SDS011;10308;42.688;23.256;2024-01-07T07:01:19;7.78;;;7.07;;
20298;SDS011;10308;42.688;23.256;2024-01-07T07:03:46;7.38;;;6.78;;
20298;SDS011;10308;42.688;23.256;2024-01-07T07:06:14;7.20;;;6.60;;
20298;SDS011;10308;42.688;23.256;2024-01-07T07:08:41;7.00;;;6.35;;
20298;SDS011;10308;42.688;23.256;2024-01-07T07:11:08;7.57;;;6.97;;
20298;SDS011;10308;42.688;23.256;2024-01-07T07:13:35;7.25;;;6.55;;
20298;SDS011;10308;42.688;23.256;2024-01-07T07:16:03;7.60;;;7.00;;
20298;SDS011;10308;42.688;23.256;2024-01-07T07:18:32;7.53;;;6.82;;
20298;SDS011;10308;42.688;23.256;2024-01-07T07:21:00;7.50;;;6.80;;
20298;SDS011;10308;42.688;23.256;2024-01-07T07:23:27;7.65;;;6.90;;
20298;SDS011;10308;42.688;23.256;2024-01-07T07:25:54;8.18;;;7.15;;
20298;SDS011;10308;42.688;23.256;2024-01-07T07:28:21;7.65;;;6.97;;
20298;SDS011;10308;42.688;23.256;2024-01-07T07:30:48;7.97;;;7.25;;
20298;SDS011;10308;42.688;23.256;2024-01-07T07:33:15;8.02;;;7.32;;
20298;SDS011;10308;42.688;23.256;2024-01-07T07:35:45;8.32;;;7.63;;
20298;SDS011;10308;42.688;23.256;2024-01-07T07:38:12;7.55;;;6.97;;
20298;SDS011;10308;42.688;23.256;2024-01-07T07:40:39;8.10;;;7.50;;
20298;SDS011;10308;42.688;23.256;2024-01-07T07:43:07;8.27;;;7.53;;
20298;SDS011;10308;42.688;23.256;2024-01-07T07:45:34;8.40;;;7.63;;
20298;SDS011;10308;42.688;23.256;2024-01-07T07:48:01;8.48;;;7.65;;
20298;SDS011;10308;42.688;23.256;2024-01-07T07:50:29;8.68;;;7.85;;
20298;SDS011;10308;42.688;23.256;2024-01-07T07:52:57;8.30;;;7.53;;
20298;SDS011;10308;42.688;23.256;2024-01-07T07:55:25;8.90;;;8.00;;
20298;SDS011;10308;42.688;23.256;2024-01-07T07:57:52;8.90;;;8.07;;
20298;SDS011;10308;42.688;23.256;2024-01-07T08:00:19;8.20;;;7.50;;
20298;SDS011;10308;42.688;23.256;2024-01-07T08:02:46;7.53;;;6.82;;
20298;SDS011;10308;42.688;23.256;2024-01-07T08:05:14;9.35;;;8.60;;
20298;SDS011;10308;42.688;23.256;2024-01-07T08:07:41;17.70;;;16.00;;
20298;SDS011;10308;42.688;23.256;2024-01-07T08:10:10;17.10;;;15.55;;
20298;SDS011;10308;42.688;23.256;2024-01-07T08:12:37;16.15;;;14.73;;
20298;SDS011;10308;42.688;23.256;2024-01-07T08:15:04;17.80;;;15.98;;
20298;SDS011;10308;42.688;23.256;2024-01-07T08:17:32;14.00;;;12.80;;
20298;SDS011;10308;42.688;23.256;2024-01-07T08:19:59;12.32;;;11.23;;
20298;SDS011;10308;42.688;23.256;2024-01-07T08:22:26;10.05;;;9.13;;
20298;SDS011;10308;42.688;23.256;2024-01-07T08:24:54;9.00;;;8.20;;
20298;SDS011;10308;42.688;23.256;2024-01-07T08:27:23;9.80;;;8.80;;
20298;SDS011;10308;42.688;23.256;2024-01-07T08:29:50;9.23;;;8.30;;
20298;SDS011;10308;42.688;23.256;2024-01-07T08:32:17;8.15;;;7.43;;
20298;SDS011;10308;42.688;23.256;2024-01-07T08:34:44;8.15;;;7.47;;
20298;SDS011;10308;42.688;23.256;2024-01-07T08:37:11;8.40;;;7.63;;
20298;SDS011;10308;42.688;23.256;2024-01-07T08:39:38;8.55;;;7.75;;
20298;SDS011;10308;42.688;23.256;2024-01-07T08:42:06;9.73;;;8.75;;
20298;SDS011;10308;42.688;23.256;2024-01-07T08:44:34;8.30;;;7.60;;
20298;SDS011;10308;42.688;23.256;2024-01-07T08:47:01;8.38;;;7.68;;
20298;SDS011;10308;42.688;23.256;2024-01-07T08:49:28;8.82;;;8.05;;
20298;SDS011;10308;42.688;23.256;2024-01-07T08:51:55;7.50;;;6.90;;
20298;SDS011;10308;42.688;23.256;2024-01-07T08:54:22;7.32;;;6.65;;
20298;SDS011;10308;42.688;23.256;2024-01-07T08:56:50;7.55;;;6.95;;
20298;SDS011;10308;42.688;23.256;2024-01-07T08:59:17;8.40;;;7.70;;
20298;SDS011;10308;42.688;23.256;2024-01-07T09:01:45;8.05;;;7.35;;
20298;SDS011;10308;42.688;23.256;2024-01-07T09:04:13;8.70;;;7.80;;
20298;SDS011;10308;42.688;23.256;2024-01-07T09:06:41;8.60;;;7.80;;
20298;SDS011;10308;42.688;23.256;2024-01-07T09:09:08;8.88;;;8.18;;
20298;SDS011;10308;42.688;23.256;2024-01-07T09:11:36;8.57;;;7.80;;
20298;SDS011;10308;42.688;23.256;2024-01-07T09:14:03;8.40;;;7.70;;
20298;SDS011;10308;42.688;23.256;2024-01-07T09:16:30;8.95;;;8.25;;
20298;SDS011;10308;42.688;23.256;2024-01-07T09:18:58;8.02;;;7.32;;
20298;SDS011;10308;42.688;23.256;2024-01-07T09:21:25;7.70;;;6.85;;
20298;SDS011;10308;42.688;23.256;2024-01-07T09:23:52;7.43;;;6.65;;
20298;SDS011;10308;42.688;23.256;2024-01-07T09:26:19;7.68;;;6.97;;
20298;SDS011;10308;42.688;23.256;2024-01-07T09:28:46;7.10;;;6.45;;
20298;SDS011;10308;42.688;23.256;2024-01-07T09:31:13;6.55;;;5.95;;
20298;SDS011;10308;42.688;23.256;2024-01-07T09:33:41;6.95;;;6.28;;
20298;SDS011;10308;42.688;23.256;2024-01-07T09:36:09;6.70;;;6.10;;
20298;SDS011;10308;42.688;23.256;2024-01-07T09:38:36;7.65;;;6.95;;
20298;SDS011;10308;42.688;23.256;2024-01-07T09:41:04;6.82;;;5.80;;
20298;SDS011;10308;42.688;23.256;2024-01-07T09:43:31;7.07;;;6.38;;
20298;SDS011;10308;42.688;23.256;2024-01-07T09:45:58;7.07;;;6.47;;
20298;SDS011;10308;42.688;23.256;2024-01-07T09:48:26;12.18;;;6.53;;
20298;SDS011;10308;42.688;23.256;2024-01-07T09:50:53;5.97;;;5.35;;
20298;SDS011;10308;42.688;23.256;2024-01-07T09:53:21;6.70;;;6.15;;
20298;SDS011;10308;42.688;23.256;2024-01-07T09:55:56;6.72;;;6.03;;
20298;SDS011;10308;42.688;23.256;2024-01-07T09:58:38;5.97;;;5.38;;
20298;SDS011;10308;42.688;23.256;2024-01-07T10:01:07;6.45;;;5.85;;
20298;SDS011;10308;42.688;23.256;2024-01-07T10:03:35;7.38;;;6.05;;
20298;SDS011;10308;42.688;23.256;2024-01-07T10:06:02;5.95;;;4.88;;
20298;SDS011;10308;42.688;23.256;2024-01-07T10:08:32;1.50;;;1.40;;
20298;SDS011;10308;42.688;23.256;2024-01-07T10:10:59;2.05;;;1.50;;
20298;SDS011;10308;42.688;23.256;2024-01-07T10:13:27;2.90;;;1.70;;
20298;SDS011;10308;42.688;23.256;2024-01-07T10:15:54;2.95;;;1.60;;
20298;SDS011;10308;42.688;23.256;2024-01-07T10:18:21;2.42;;;1.60;;
20298;SDS011;10308;42.688;23.256;2024-01-07T10:20:48;3.63;;;1.50;;
20298;SDS011;10308;42.688;23.256;2024-01-07T10:23:18;2.03;;;1.40;;
20298;SDS011;10308;42.688;23.256;2024-01-07T10:25:47;2.15;;;1.70;;
20298;SDS011;10308;42.688;23.256;2024-01-07T10:28:13;3.03;;;1.67;;
20298;SDS011;10308;42.688;23.256;2024-01-07T10:30:40;3.72;;;1.60;;
20298;SDS011;10308;42.688;23.256;2024-01-07T10:33:08;2.13;;;1.60;;
20298;SDS011;10308;42.688;23.256;2024-01-07T10:35:36;3.40;;;1.52;;
20298;SDS011;10308;42.688;23.256;2024-01-07T10:38:04;3.53;;;1.30;;
20298;SDS011;10308;42.688;23.256;2024-01-07T10:40:31;2.30;;;1.40;;
20298;SDS011;10308;42.688;23.256;2024-01-07T10:43:00;2.45;;;1.58;;
20298;SDS011;10308;42.688;23.256;2024-01-07T10:45:28;3.80;;;1.65;;
20298;SDS011;10308;42.688;23.256;2024-01-07T10:47:57;3.08;;;2.15;;
20298;SDS011;10308;42.688;23.256;2024-01-07T10:50:27;4.20;;;2.60;;
20298;SDS011;10308;42.688;23.256;2024-01-07T10:52:57;4.45;;;2.70;;
20298;SDS011;10308;42.688;23.256;2024-01-07T10:55:26;1.70;;;1.60;;
20298;SDS011;10308;42.688;23.256;2024-01-07T10:57:54;2.97;;;1.95;;
20298;SDS011;10308;42.688;23.256;2024-01-07T11:00:24;3.65;;;1.80;;
20298;SDS011;10308;42.688;23.256;2024-01-07T11:02:53;2.63;;;1.60;;
20298;SDS011;10308;42.688;23.256;2024-01-07T11:05:26;4.53;;;2.40;;
20298;SDS011;10308;42.688;23.256;2024-01-07T11:07:59;4.63;;;2.40;;
20298;SDS011;10308;42.688;23.256;2024-01-07T11:10:31;4.10;;;1.70;;
20298;SDS011;10308;42.688;23.256;2024-01-07T11:13:03;3.05;;;2.13;;
20298;SDS011;10308;42.688;23.256;2024-01-07T11:18:24;3.83;;;1.80;;
20298;SDS011;10308;42.688;23.256;2024-01-07T11:20:58;5.78;;;1.88;;
20298;SDS011;10308;42.688;23.256;2024-01-07T11:23:29;3.30;;;2.38;;
20298;SDS011;10308;42.688;23.256;2024-01-07T11:25:58;6.10;;;5.50;;
20298;SDS011;10308;42.688;23.256;2024-01-07T11:28:47;6.63;;;6.03;;
20298;SDS011;10308;42.688;23.256;2024-01-07T11:31:18;5.97;;;5.38;;
20298;SDS011;10308;42.688;23.256;2024-01-07T11:33:46;7.22;;;6.57;;
20298;SDS011;10308;42.688;23.256;2024-01-07T11:36:14;8.10;;;7.40;;
20298;SDS011;10308;42.688;23.256;2024-01-07T11:38:41;10.55;;;7.78;;
20298;SDS011;10308;42.688;23.256;2024-01-07T11:41:09;7.55;;;6.57;;
20298;SDS011;10308;42.688;23.256;2024-01-07T11:43:38;7.80;;;6.93;;
20298;SDS011;10308;42.688;23.256;2024-01-07T11:46:05;7.03;;;6.25;;
20298;SDS011;10308;42.688;23.256;2024-01-07T11:48:33;6.35;;;5.75;;
20298;SDS011;10308;42.688;23.256;2024-01-07T11:51:00;7.65;;;6.95;;
20298;SDS011;10308;42.688;23.256;2024-01-07T11:53:27;7.53;;;6.78;;
20298;SDS011;10308;42.688;23.256;2024-01-07T11:55:54;7.50;;;6.20;;
20298;SDS011;10308;42.688;23.256;2024-01-07T11:58:21;6.47;;;5.95;;
20298;SDS011;10308;42.688;23.256;2024-01-07T12:00:48;6.97;;;6.30;;
20298;SDS011;10308;42.688;23.256;2024-01-07T12:03:15;5.95;;;5.45;;
20298;SDS011;10308;42.688;23.256;2024-01-07T12:05:44;7.00;;;6.28;;
20298;SDS011;10308;42.688;23.256;2024-01-07T12:08:12;7.47;;;6.78;;
20298;SDS011;10308;42.688;23.256;2024-01-07T12:10:41;6.97;;;6.28;;
20298;SDS011;10308;42.688;23.256;2024-01-07T12:13:08;7.95;;;6.75;;
20298;SDS011;10308;42.688;23.256;2024-01-07T12:15:37;9.57;;;7.18;;
20298;SDS011;10308;42.688;23.256;2024-01-07T12:18:04;7.88;;;6.70;;
20298;SDS011;10308;42.688;23.256;2024-01-07T12:20:32;6.80;;;6.10;;
20298;SDS011;10308;42.688;23.256;2024-01-07T12:23:06;8.00;;;5.57;;
20298;SDS011;10308;42.688;23.256;2024-01-07T12:25:33;6.10;;;5.50;;
20298;SDS011;10308;42.688;23.256;2024-01-07T12:28:00;6.80;;;6.18;;
20298;SDS011;10308;42.688;23.256;2024-01-07T12:30:28;5.63;;;5.05;;
20298;SDS011;10308;42.688;23.256;2024-01-07T12:32:56;6.55;;;5.15;;
20298;SDS011;10308;42.688;23.256;2024-01-07T12:35:25;7.05;;;6.43;;
20298;SDS011;10308;42.688;23.256;2024-01-07T12:37:52;5.82;;;5.25;;
20298;SDS011;10308;42.688;23.256;2024-01-07T12:40:20;6.53;;;5.07;;
20298;SDS011;10308;42.688;23.256;2024-01-07T12:42:49;6.22;;;5.63;;
20298;SDS011;10308;42.688;23.256;2024-01-07T12:45:16;7.03;;;5.90;;
20298;SDS011;10308;42.688;23.256;2024-01-07T12:47:44;6.88;;;5.35;;
20298;SDS011;10308;42.688;23.256;2024-01-07T12:50:12;5.95;;;5.35;;
20298;SDS011;10308;42.688;23.256;2024-01-07T12:52:40;6.88;;;5.40;;
20298;SDS011;10308;42.688;23.256;2024-01-07T12:55:07;6.07;;;5.57;;
20298;SDS011;10308;42.688;23.256;2024-01-07T12:57:36;6.28;;;5.68;;
20298;SDS011;10308;42.688;23.256;2024-01-07T13:00:03;6.82;;;6.22;;
20298;SDS011;10308;42.688;23.256;2024-01-07T13:02:32;8.32;;;6.25;;
20298;SDS011;10308;42.688;23.256;2024-01-07T13:05:01;7.55;;;6.40;;
20298;SDS011;10308;42.688;23.256;2024-01-07T13:07:28;7.80;;;6.93;;
20298;SDS011;10308;42.688;23.256;2024-01-07T13:09:55;8.18;;;7.38;;
20298;SDS011;10308;42.688;23.256;2024-01-07T13:12:22;8.30;;;7.30;;
20298;SDS011;10308;42.688;23.256;2024-01-07T13:14:50;6.55;;;5.93;;
20298;SDS011;10308;42.688;23.256;2024-01-07T13:17:18;6.97;;;6.38;;
20298;SDS011;10308;42.688;23.256;2024-01-07T13:19:45;7.55;;;6.78;;
20298;SDS011;10308;42.688;23.256;2024-01-07T13:22:12;7.30;;;6.60;;
20298;SDS011;10308;42.688;23.256;2024-01-07T13:24:40;7.43;;;6.72;;
20298;SDS011;10308;42.688;23.256;2024-01-07T13:27:07;9.77;;;7.35;;
20298;SDS011;10308;42.688;23.256;2024-01-07T13:29:34;9.73;;;6.65;;
20298;SDS011;10308;42.688;23.256;2024-01-07T13:32:03;9.00;;;8.02;;
20298;SDS011;10308;42.688;23.256;2024-01-07T13:34:30;8.57;;;7.78;;
20298;SDS011;10308;42.688;23.256;2024-01-07T13:36:59;9.25;;;8.27;;
20298;SDS011;10308;42.688;23.256;2024-01-07T13:39:26;7.18;;;6.53;;
20298;SDS011;10308;42.688;23.256;2024-01-07T13:41:53;7.15;;;6.55;;
20298;SDS011;10308;42.688;23.256;2024-01-07T13:44:20;7.78;;;6.97;;
20298;SDS011;10308;42.688;23.256;2024-01-07T13:46:47;8.80;;;6.95;;
20298;SDS011;10308;42.688;23.256;2024-01-07T13:49:16;7.13;;;6.40;;
20298;SDS011;10308;42.688;23.256;2024-01-07T13:51:44;6.85;;;6.25;;
20298;SDS011;10308;42.688;23.256;2024-01-07T13:54:11;7.28;;;6.65;;
20298;SDS011;10308;42.688;23.256;2024-01-07T13:56:39;7.07;;;6.47;;
20298;SDS011;10308;42.688;23.256;2024-01-07T13:59:07;7.57;;;6.88;;
20298;SDS011;10308;42.688;23.256;2024-01-07T14:01:35;7.88;;;7.18;;
20298;SDS011;10308;42.688;23.256;2024-01-07T14:04:02;10.35;;;9.35;;
20298;SDS011;10308;42.688;23.256;2024-01-07T14:06:30;10.07;;;8.85;;
20298;SDS011;10308;42.688;23.256;2024-01-07T14:08:57;8.63;;;7.72;;
20298;SDS011;10308;42.688;23.256;2024-01-07T14:11:24;8.38;;;7.65;;
20298;SDS011;10308;42.688;23.256;2024-01-07T14:13:53;8.68;;;7.82;;
20298;SDS011;10308;42.688;23.256;2024-01-07T14:16:20;8.82;;;8.05;;
20298;SDS011;10308;42.688;23.256;2024-01-07T14:18:47;10.95;;;9.75;;
20298;SDS011;10308;42.688;23.256;2024-01-07T14:21:15;9.88;;;8.80;;
20298;SDS011;10308;42.688;23.256;2024-01-07T14:23:43;8.95;;;8.13;;
20298;SDS011;10308;42.688;23.256;2024-01-07T14:26:10;7.90;;;7.10;;
20298;SDS011;10308;42.688;23.256;2024-01-07T14:28:37;8.57;;;7.78;;
20298;SDS011;10308;42.688;23.256;2024-01-07T14:31:05;9.48;;;8.52;;
20298;SDS011;10308;42.688;23.256;2024-01-07T14:33:32;9.38;;;8.57;;